Time;durP1;ratioP1;P1;durP2;ratioP2;P2;SDS_P1;SDS_P2;PMS_P1;PMS_P2;Temp;Humidity;BMP_temperature;BMP_pressure;BME280_temperature;BME280_humidity;BME280_pressure;Samples;Min_cycle;Max_cycle;Signal;HPM_P1;HPM_P2
2022/03/22 00:00:32;;;;;;;44.60;33.03;;;7.10;99.90;;;;;;5112792;28;20036;-79
2022/03/22 00:02:58;;;;;;;46.30;34.05;;;7.10;99.90;;;;;;5112501;28;20706;-79
2022/03/22 00:05:24;;;;;;;40.15;32.10;;;7.00;99.90;;;;;;5094329;28;20055;-78
2022/03/22 00:07:50;;;;;;;44.17;32.40;;;7.00;99.90;;;;;;5112047;28;20055;-79
2022/03/22 00:10:16;;;;;;;44.38;31.88;;;7.00;99.90;;;;;;5093296;28;20043;-79
2022/03/22 00:12:42;;;;;;;43.00;32.60;;;7.00;99.90;;;;;;5093420;28;20055;-79
2022/03/22 00:15:08;;;;;;;;;;;7.00;99.90;;;;;;5093763;28;20040;-79
2022/03/22 00:17:34;;;;;;;43.83;33.03;;;7.00;99.90;;;;;;5111249;28;19989;-79
2022/03/22 00:20:00;;;;;;;44.20;33.42;;;7.00;99.90;;;;;;5094011;28;20055;-79
2022/03/22 00:22:27;;;;;;;49.97;34.92;;;7.00;99.90;;;;;;5111314;28;20755;-78
2022/03/22 00:24:53;;;;;;;41.60;31.98;;;6.90;99.90;;;;;;5092983;28;20044;-79
2022/03/22 00:27:19;;;;;;;44.67;33.83;;;7.00;99.90;;;;;;5111250;28;20062;-79
2022/03/22 00:29:45;;;;;;;45.17;32.25;;;6.90;99.90;;;;;;5111511;28;20473;-79
2022/03/22 00:32:11;;;;;;;45.47;32.45;;;6.90;99.90;;;;;;5092727;28;20497;-79
2022/03/22 00:34:44;;;;;;;42.50;31.38;;;6.90;99.90;;;;;;5092983;28;20083;-79
2022/03/22 00:37:18;;;;;;;44.22;33.10;;;6.80;99.90;;;;;;5110569;28;20517;-79
2022/03/22 00:39:45;;;;;;;43.38;31.88;;;6.80;99.90;;;;;;5092097;28;20074;-79
2022/03/22 00:42:14;;;;;;;45.28;32.63;;;6.80;99.90;;;;;;5110104;28;20109;-79
2022/03/22 00:44:39;;;;;;;44.63;33.83;;;6.70;99.90;;;;;;5093017;28;20135;-79
2022/03/22 00:47:07;;;;;;;44.28;32.63;;;6.70;99.90;;;;;;5092346;28;20784;-79
2022/03/22 00:49:34;;;;;;;41.90;31.50;;;6.70;99.90;;;;;;5111358;28;20055;-78
2022/03/22 00:52:01;;;;;;;45.95;33.42;;;6.70;99.90;;;;;;5110598;28;20521;-78
2022/03/22 00:54:28;;;;;;;43.47;31.92;;;6.70;99.90;;;;;;5091905;28;20048;-78
2022/03/22 00:56:54;;;;;;;49.80;33.92;;;6.70;99.90;;;;;;5092541;28;20047;-79
2022/03/22 01:02:05;;;;;;;42.53;31.67;;;6.70;99.90;;;;;;5093154;28;20060;-79
2022/03/22 01:04:30;;;;;;;42.00;31.38;;;6.70;99.90;;;;;;5111652;28;20123;-80
2022/03/22 01:06:56;;;;;;;42.95;32.05;;;6.70;99.90;;;;;;5114929;27;20089;-79
2022/03/22 01:09:22;;;;;;;43.13;32.58;;;6.70;99.90;;;;;;5130586;27;20040;-79
2022/03/22 01:11:47;;;;;;;43.17;32.03;;;6.70;99.90;;;;;;5112931;27;20071;-79
2022/03/22 01:14:13;;;;;;;44.30;32.85;;;6.80;99.90;;;;;;5130988;27;20093;-79
2022/03/22 01:16:39;;;;;;;44.35;32.42;;;6.80;99.90;;;;;;5130584;27;20051;-79
2022/03/22 01:19:06;;;;;;;42.55;31.70;;;6.80;99.90;;;;;;5112373;27;20451;-79
2022/03/22 01:21:32;;;;;;;46.10;32.17;;;6.80;99.90;;;;;;5112920;27;20043;-79
2022/03/22 01:23:59;;;;;;;44.40;33.15;;;6.70;99.90;;;;;;5095098;28;20047;-79
2022/03/22 01:26:25;;;;;;;42.78;30.80;;;6.80;99.90;;;;;;5109845;28;20094;-79
2022/03/22 01:28:50;;;;;;;42.88;30.80;;;6.80;99.90;;;;;;5110625;28;20122;-79
2022/03/22 01:31:17;;;;;;;45.00;32.67;;;6.90;99.90;;;;;;5091779;28;20118;-79
2022/03/22 01:33:43;;;;;;;42.35;30.48;;;6.90;99.90;;;;;;5091671;28;20039;-79
2022/03/22 01:36:09;;;;;;;46.03;32.00;;;6.90;99.90;;;;;;5091899;28;20127;-79
2022/03/22 01:38:35;;;;;;;42.25;32.65;;;6.90;99.90;;;;;;5091403;28;20127;-79
2022/03/22 01:41:01;;;;;;;48.45;32.25;;;6.90;99.90;;;;;;5126866;27;20097;-79
2022/03/22 01:43:26;;;;;;;42.92;32.95;;;6.90;99.90;;;;;;5112351;27;20086;-79
2022/03/22 01:45:52;;;;;;;45.35;33.00;;;6.90;99.90;;;;;;5130892;27;20051;-79
2022/03/22 01:48:17;;;;;;;44.75;33.28;;;6.90;99.90;;;;;;5130166;27;20050;-79
2022/03/22 01:50:43;;;;;;;41.85;31.70;;;6.90;99.90;;;;;;5129750;27;20122;-79
2022/03/22 01:53:10;;;;;;;45.28;32.42;;;6.90;99.90;;;;;;5111870;27;20091;-79
2022/03/22 01:55:36;;;;;;;43.13;32.50;;;7.00;99.90;;;;;;5130220;27;20097;-79
2022/03/22 01:58:03;;;;;;;43.97;33.28;;;7.00;99.90;;;;;;5111656;27;20054;-79
2022/03/22 02:00:29;;;;;;;41.85;31.85;;;7.00;99.90;;;;;;5111996;27;20126;-79
2022/03/22 02:05:57;;;;;;;41.55;31.40;;;7.00;99.90;;;;;;5130340;27;20057;-79
2022/03/22 02:08:33;;;;;;;45.28;31.08;;;7.00;99.90;;;;;;5130130;27;20047;-79
2022/03/22 02:11:00;;;;;;;44.17;32.50;;;7.10;99.90;;;;;;5111262;27;20055;-79
2022/03/22 02:13:27;;;;;;;43.83;32.70;;;7.10;99.90;;;;;;5112004;27;20050;-79
2022/03/22 02:15:56;;;;;;;44.72;31.77;;;7.10;99.90;;;;;;5111470;27;20050;-79
2022/03/22 02:18:21;;;;;;;39.78;29.52;;;7.10;99.90;;;;;;5129583;27;20046;-79
2022/03/22 02:20:47;;;;;;;43.78;33.10;;;7.10;99.90;;;;;;5129964;27;20039;-79
2022/03/22 02:23:41;;;;;;;43.55;32.67;;;7.10;99.90;;;;;;5110759;27;20039;-79
2022/03/22 02:26:07;;;;;;;47.28;32.15;;;7.10;99.90;;;;;;5130010;27;20127;-79
2022/03/22 02:28:32;;;;;;;44.70;32.55;;;7.00;99.90;;;;;;5111454;27;20085;-79
2022/03/22 02:30:58;;;;;;;46.63;33.65;;;7.00;99.90;;;;;;5129524;27;20049;-79
2022/03/22 02:33:23;;;;;;;43.13;32.97;;;6.90;99.90;;;;;;5093507;27;20054;-79
2022/03/22 02:35:49;;;;;;;43.50;33.05;;;6.90;99.90;;;;;;5129817;27;20134;-79
2022/03/22 02:38:15;;;;;;;45.17;33.92;;;6.80;99.90;;;;;;5111260;27;20039;-79
2022/03/22 02:40:41;;;;;;;46.20;33.60;;;6.80;99.90;;;;;;5110046;27;20483;-79
2022/03/22 02:43:08;;;;;;;43.85;33.13;;;6.80;99.90;;;;;;5129324;27;20043;-79
2022/03/22 02:45:33;;;;;;;45.60;32.45;;;6.80;99.90;;;;;;5111570;27;20143;-79
2022/03/22 02:47:59;;;;;;;43.88;32.78;;;6.80;99.90;;;;;;5110993;27;20494;-79
2022/03/22 02:50:25;;;;;;;42.78;33.67;;;6.80;99.90;;;;;;5111186;27;20100;-79
2022/03/22 02:52:51;;;;;;;41.97;32.20;;;6.80;99.90;;;;;;5111085;28;20074;-79
2022/03/22 02:55:16;;;;;;;45.72;32.97;;;6.80;99.90;;;;;;5110410;27;20048;-79
2022/03/22 02:57:43;;;;;;;47.45;34.67;;;6.80;99.90;;;;;;5111162;27;20047;-79
2022/03/22 03:00:11;;;;;;;44.60;32.95;;;6.80;99.90;;;;;;5110939;28;20049;-79
2022/03/22 03:02:44;;;;;;;44.85;34.95;;;6.80;99.90;;;;;;5110381;28;20499;-79
2022/03/22 03:05:10;;;;;;;43.67;32.60;;;6.80;99.90;;;;;;5110770;28;20409;-80
2022/03/22 03:07:36;;;;;;;44.97;33.35;;;6.80;99.90;;;;;;5130243;28;20058;-79
2022/03/22 03:10:04;;;;;;;46.63;33.22;;;6.80;99.90;;;;;;5111576;28;20047;-79
2022/03/22 03:12:29;;;;;;;45.15;35.08;;;6.80;99.90;;;;;;5129985;28;20049;-79
2022/03/22 03:14:55;;;;;;;44.15;33.97;;;6.70;99.90;;;;;;5129306;28;20043;-78
2022/03/22 03:17:20;;;;;;;45.40;31.08;;;6.70;99.90;;;;;;5111591;28;20043;-79
2022/03/22 03:19:46;;;;;;;48.28;33.03;;;6.70;99.90;;;;;;5129969;28;20322;-79
2022/03/22 03:22:12;;;;;;;44.17;33.03;;;6.70;99.90;;;;;;5111221;28;20047;-79
2022/03/22 03:24:37;;;;;;;47.65;34.22;;;6.60;99.90;;;;;;5129945;28;20039;-79
2022/03/22 03:27:03;;;;;;;46.80;34.40;;;6.60;99.90;;;;;;5129724;28;20114;-79
2022/03/22 03:29:29;;;;;;;49.00;35.13;;;6.60;99.90;;;;;;5110937;28;20035;-79
2022/03/22 03:31:54;;;;;;;45.42;33.67;;;6.60;99.90;;;;;;5111236;28;20047;-79
2022/03/22 03:34:21;;;;;;;46.53;34.40;;;6.50;99.90;;;;;;5111240;28;20074;-79
2022/03/22 03:36:46;;;;;;;47.35;34.05;;;6.50;99.90;;;;;;5111206;28;20039;-79
2022/03/22 03:39:12;;;;;;;44.60;34.55;;;6.50;99.90;;;;;;5111053;28;20043;-79
2022/03/22 03:41:56;;;;;;;46.88;34.38;;;6.50;99.90;;;;;;5110807;28;20055;-79
2022/03/22 03:47:07;;;;;;;47.90;33.08;;;6.60;99.90;;;;;;5111277;28;20047;-79
2022/03/22 03:49:35;;;;;;;49.60;34.17;;;6.60;99.90;;;;;;5111429;28;20054;-79
2022/03/22 03:52:02;;;;;;;46.35;33.88;;;6.60;99.90;;;;;;5129555;28;20495;-79
2022/03/22 03:54:28;;;;;;;48.45;34.65;;;6.60;99.90;;;;;;5129257;28;20051;-79
2022/03/22 03:56:54;;;;;;;48.60;34.47;;;6.50;99.90;;;;;;5110915;28;20394;-79
2022/03/22 03:59:20;;;;;;;;;;;6.50;99.90;;;;;;5111829;28;20043;-79
2022/03/22 04:01:46;;;;;;;;;;;6.50;99.90;;;;;;5111944;28;20698;-79
2022/03/22 04:04:12;;;;;;;;;;;6.50;99.90;;;;;;5111326;28;19930;-79
2022/03/22 04:06:37;;;;;;;47.05;33.33;;;6.50;99.90;;;;;;5111057;28;19919;-79
2022/03/22 04:09:03;;;;;;;44.08;31.55;;;6.50;99.90;;;;;;5111332;28;20485;-79
2022/03/22 04:11:29;;;;;;;45.50;32.83;;;6.50;99.90;;;;;;5111123;28;20043;-79
2022/03/22 04:13:54;;;;;;;44.47;33.58;;;6.50;99.90;;;;;;5103741;28;20131;-79
2022/03/22 04:16:20;;;;;;;44.35;34.10;;;6.50;99.90;;;;;;5091331;28;20055;-80
2022/03/22 04:18:46;;;;;;;43.85;30.42;;;6.50;99.90;;;;;;5094329;28;20039;-79
2022/03/22 04:21:11;;;;;;;43.78;30.48;;;6.40;99.90;;;;;;5094163;28;20044;-79
2022/03/22 04:23:37;;;;;;;44.15;30.73;;;6.40;99.90;;;;;;5094188;28;20493;-79
2022/03/22 04:26:03;;;;;;;44.38;32.95;;;6.50;99.90;;;;;;5093946;28;20086;-79
2022/03/22 04:33:57;;;;;;;42.38;30.65;;;6.50;99.90;;;;;;5093846;28;20444;-79
2022/03/22 04:36:23;;;;;;;43.92;30.88;;;6.40;99.90;;;;;;5112364;28;20058;-79
2022/03/22 04:38:49;;;;;;;41.35;29.77;;;6.40;99.90;;;;;;5111317;28;20055;-79
2022/03/22 04:41:14;;;;;;;44.45;32.45;;;6.40;99.90;;;;;;5076730;28;20138;-79
2022/03/22 04:43:40;;;;;;;46.08;32.47;;;6.40;99.90;;;;;;5093873;28;20039;-79
2022/03/22 04:46:07;;;;;;;44.35;30.65;;;6.40;99.90;;;;;;5093705;28;20602;-79
2022/03/22 04:48:34;;;;;;;42.17;30.95;;;6.40;99.90;;;;;;5093484;28;20089;-79
2022/03/22 04:59:22;;;;;;;39.95;29.52;;;6.20;99.90;;;;;;5093340;28;20043;-79
2022/03/22 05:01:49;;;;;;;44.05;31.58;;;6.20;99.90;;;;;;5093241;28;20036;-78
2022/03/22 05:04:15;;;;;;;40.53;30.75;;;6.10;99.90;;;;;;5111367;28;20082;-79
2022/03/22 05:06:41;;;;;;;44.97;32.45;;;6.10;99.90;;;;;;5093270;28;20128;-79
2022/03/22 05:09:07;;;;;;;45.65;30.95;;;6.10;99.90;;;;;;5111116;28;20040;-79
2022/03/22 05:11:34;;;;;;;45.58;32.25;;;6.00;99.90;;;;;;5093096;28;20043;-80
2022/03/22 05:14:00;;;;;;;44.05;31.90;;;6.00;99.90;;;;;;5118288;27;20062;-79
2022/03/22 05:16:26;;;;;;;42.13;30.45;;;6.10;99.90;;;;;;5131520;27;20084;-79
2022/03/22 05:18:52;;;;;;;43.75;30.02;;;6.10;99.90;;;;;;5113184;27;20035;-79
2022/03/22 05:21:19;;;;;;;41.38;30.67;;;6.10;99.90;;;;;;5131295;27;20047;-78
2022/03/22 05:23:45;;;;;;;44.03;30.48;;;6.10;99.90;;;;;;5113559;27;20039;-79
2022/03/22 05:26:12;;;;;;;46.22;31.40;;;6.10;99.90;;;;;;5112661;27;20039;-79
2022/03/22 05:28:38;;;;;;;44.97;32.25;;;6.10;99.90;;;;;;5112833;27;20057;-79
2022/03/22 05:31:05;;;;;;;41.53;31.55;;;6.10;99.90;;;;;;5096454;27;20718;-79
2022/03/22 05:33:31;;;;;;;47.45;30.50;;;6.10;99.90;;;;;;5113146;27;20122;-79
2022/03/22 05:35:56;;;;;;;46.40;31.80;;;6.10;99.90;;;;;;5112893;27;20889;-79
2022/03/22 05:38:25;;;;;;;43.70;31.20;;;6.10;99.90;;;;;;5112774;27;20127;-79
2022/03/22 05:40:51;;;;;;;43.92;31.10;;;6.10;99.90;;;;;;5131739;27;20051;-79
2022/03/22 05:43:17;;;;;;;39.90;29.63;;;6.10;99.90;;;;;;5113011;27;20230;-79
2022/03/22 05:45:48;;;;;;;41.30;30.23;;;6.10;99.90;;;;;;5113269;27;20545;-79
2022/03/22 05:48:18;;;;;;;39.25;29.25;;;6.10;99.90;;;;;;5112542;27;20043;-79
2022/03/22 05:50:44;;;;;;;40.50;29.20;;;6.10;99.90;;;;;;5112749;27;20073;-79
2022/03/22 05:53:10;;;;;;;43.83;30.23;;;6.10;99.90;;;;;;5112732;27;20129;-79
2022/03/22 05:55:36;;;;;;;46.97;31.95;;;6.10;99.90;;;;;;5131076;27;20129;-79
2022/03/22 05:58:03;;;;;;;42.63;30.00;;;6.00;99.90;;;;;;5112728;27;20039;-79
2022/03/22 06:00:29;;;;;;;46.10;31.13;;;6.00;99.90;;;;;;5112817;27;20050;-79
2022/03/22 06:02:55;;;;;;;43.90;30.58;;;6.00;99.90;;;;;;5112411;27;20043;-79
2022/03/22 06:05:21;;;;;;;43.05;29.83;;;6.00;99.90;;;;;;5112554;27;20039;-79
2022/03/22 06:07:47;;;;;;;40.95;30.27;;;6.00;99.90;;;;;;5112653;27;20136;-79
2022/03/22 06:10:13;;;;;;;43.28;31.42;;;6.00;99.90;;;;;;5130801;27;20051;-79
2022/03/22 06:12:47;;;;;;;42.63;30.92;;;6.00;99.90;;;;;;5112275;27;20082;-79
2022/03/22 06:15:18;;;;;;;43.42;30.40;;;6.10;99.90;;;;;;5112099;27;20058;-79
2022/03/22 06:18:04;;;;;;;40.95;29.65;;;6.10;99.90;;;;;;5112412;27;20062;-79
2022/03/22 06:20:36;;;;;;;47.47;31.63;;;6.10;99.90;;;;;;5095584;27;20043;-79
2022/03/22 06:23:04;;;;;;;44.38;29.75;;;6.10;99.90;;;;;;5112051;27;20042;-79
2022/03/22 06:25:30;;;;;;;41.60;31.02;;;6.10;99.90;;;;;;5112292;27;20043;-79
2022/03/22 06:27:56;;;;;;;45.40;30.75;;;6.20;99.90;;;;;;5111798;27;20131;-79
2022/03/22 06:30:23;;;;;;;40.55;29.60;;;6.30;99.90;;;;;;5112105;27;20035;-79
2022/03/22 06:33:00;;;;;;;48.47;30.98;;;6.40;99.90;;;;;;5111947;27;20509;-79
2022/03/22 06:35:31;;;;;;;46.25;31.30;;;6.40;99.90;;;;;;5108893;27;20119;-79
2022/03/22 06:37:59;;;;;;;44.28;31.67;;;6.40;99.90;;;;;;5116906;27;20126;-79
2022/03/22 06:40:28;;;;;;;44.10;31.63;;;6.40;99.90;;;;;;5115681;27;20110;-79
2022/03/22 06:42:54;;;;;;;43.88;31.42;;;6.50;99.90;;;;;;5090420;28;20038;-80
2022/03/22 06:45:21;;;;;;;46.92;31.13;;;6.50;99.90;;;;;;5110264;28;20073;-79
2022/03/22 06:47:46;;;;;;;42.05;31.63;;;6.50;99.90;;;;;;5091637;28;20039;-79
2022/03/22 06:50:15;;;;;;;44.80;31.35;;;6.50;99.90;;;;;;5110087;28;20101;-79
2022/03/22 06:52:41;;;;;;;44.10;30.38;;;6.50;99.90;;;;;;5109939;28;20043;-79
2022/03/22 06:55:08;;;;;;;42.25;31.75;;;6.50;99.90;;;;;;5098483;27;20447;-80
2022/03/22 06:57:35;;;;;;;41.83;31.58;;;6.50;99.90;;;;;;5130712;27;20442;-80
2022/03/22 07:00:04;;;;;;;40.05;29.75;;;6.60;99.90;;;;;;5111389;27;20122;-78
2022/03/22 07:02:31;;;;;;;40.05;30.05;;;6.60;99.90;;;;;;5115809;28;20074;-78
2022/03/22 07:04:56;;;;;;;44.20;30.60;;;6.60;99.90;;;;;;5124018;27;20566;-79
2022/03/22 07:07:22;;;;;;;43.22;31.02;;;6.70;99.90;;;;;;5111588;28;20043;-79
2022/03/22 07:09:48;;;;;;;41.00;30.92;;;6.70;99.90;;;;;;5111787;28;20043;-79
2022/03/22 07:12:14;;;;;;;41.53;31.25;;;6.80;99.90;;;;;;5109293;28;20035;-80
2022/03/22 07:14:40;;;;;;;44.13;30.50;;;6.90;99.90;;;;;;5116541;28;20378;-80
2022/03/22 07:17:08;;;;;;;42.38;31.60;;;7.00;99.90;;;;;;5094192;28;20071;-79
2022/03/22 07:19:34;;;;;;;45.70;31.27;;;7.00;99.90;;;;;;5110310;28;20263;-79
2022/03/22 07:22:01;;;;;;;41.10;30.38;;;7.10;99.90;;;;;;5116865;28;20404;-78
2022/03/22 07:24:27;;;;;;;45.30;29.45;;;7.20;99.90;;;;;;5128607;28;20039;-78
2022/03/22 07:26:53;;;;;;;44.05;31.63;;;7.30;99.90;;;;;;5114433;28;20053;-79
2022/03/22 07:29:18;;;;;;;46.50;37.28;;;7.40;99.90;;;;;;5107457;28;20503;-79
2022/03/22 07:31:44;;;;;;;42.20;36.47;;;7.50;99.90;;;;;;5107248;28;20447;-79
2022/03/22 07:34:14;;;;;;;44.70;36.17;;;7.60;99.90;;;;;;5106680;28;21102;-79
2022/03/22 07:36:39;;;;;;;42.78;32.53;;;7.60;99.90;;;;;;5119683;28;20043;-79
2022/03/22 07:39:07;;;;;;;42.28;31.88;;;7.70;99.90;;;;;;5109416;28;20143;-79
2022/03/22 07:41:33;;;;;;;41.38;31.33;;;7.80;99.90;;;;;;5119567;28;20476;-78
2022/03/22 07:44:01;;;;;;;40.38;30.70;;;7.90;99.90;;;;;;5107962;28;20075;-77
2022/03/22 07:46:27;;;;;;;44.90;30.67;;;8.00;99.90;;;;;;5085856;28;20047;-78
2022/03/22 07:48:53;;;;;;;41.80;29.40;;;8.10;99.90;;;;;;5100715;28;20054;-80
2022/03/22 07:54:03;;;;;;;40.05;32.17;;;8.30;99.90;;;;;;5108382;27;20043;-77
2022/03/22 07:56:32;;;;;;;45.50;31.45;;;8.40;99.90;;;;;;5133674;27;20420;-77
2022/03/22 07:58:58;;;;;;;41.83;31.48;;;8.50;99.90;;;;;;5114726;27;20035;-77
2022/03/22 08:01:24;;;;;;;44.67;31.25;;;8.50;99.90;;;;;;5104074;28;20059;-79
2022/03/22 08:03:51;;;;;;;44.92;32.10;;;8.60;99.90;;;;;;5094698;28;20047;-79
2022/03/22 08:06:16;;;;;;;41.65;31.48;;;8.70;99.90;;;;;;5094515;28;20569;-79
2022/03/22 08:08:44;;;;;;;41.97;31.60;;;8.70;99.90;;;;;;5121253;27;20122;-79
2022/03/22 08:11:10;;;;;;;41.55;30.65;;;8.70;99.90;;;;;;5127938;27;20062;-79
2022/03/22 08:13:37;;;;;;;40.92;30.90;;;8.80;99.90;;;;;;5111082;27;20051;-79
2022/03/22 08:16:06;;;;;;;41.40;31.67;;;8.80;99.90;;;;;;5126500;27;20054;-79
2022/03/22 08:18:32;;;;;;;41.72;31.17;;;8.90;99.90;;;;;;5112266;28;20048;-79
2022/03/22 08:20:58;;;;;;;41.65;31.73;;;9.00;99.90;;;;;;5112296;28;20530;-79
2022/03/22 08:23:24;;;;;;;44.80;32.30;;;9.00;99.90;;;;;;5115453;27;20071;-79
2022/03/22 08:25:51;;;;;;;40.30;31.20;;;9.10;99.90;;;;;;5120825;27;20078;-79
2022/03/22 08:28:18;;;;;;;41.83;30.58;;;9.10;99.90;;;;;;5096159;28;20443;-79
2022/03/22 08:30:44;;;;;;;44.05;31.52;;;9.30;99.90;;;;;;5117551;27;20390;-79
2022/03/22 08:33:11;;;;;;;39.45;30.80;;;9.30;99.90;;;;;;5132910;27;20070;-79
2022/03/22 08:35:42;;;;;;;40.92;31.30;;;9.30;99.90;;;;;;5118008;27;20046;-79
2022/03/22 08:38:10;;;;;;;40.03;30.95;;;9.40;99.90;;;;;;5128693;27;20115;-79
2022/03/22 08:40:36;;;;;;;;;;;9.50;99.90;;;;;;5130420;27;20059;-79
2022/03/22 08:43:05;;;;;;;;;;;9.60;99.90;;;;;;5101682;27;19950;-79
2022/03/22 08:45:33;;;;;;;;;;;9.70;99.90;;;;;;5133373;27;19919;-79
2022/03/22 08:48:00;;;;;;;42.47;30.45;;;9.80;99.90;;;;;;5110790;27;19919;-79
2022/03/22 08:50:26;;;;;;;40.30;30.52;;;9.90;99.90;;;;;;5116946;27;20421;-80
2022/03/22 08:52:57;;;;;;;41.00;34.90;;;9.90;99.90;;;;;;5095764;27;20463;-78
2022/03/22 08:55:23;;;;;;;38.95;34.85;;;10.10;99.90;;;;;;5111770;27;20475;-78
2022/03/22 08:57:49;;;;;;;42.15;35.05;;;10.10;99.90;;;;;;5096151;27;20406;-78
2022/03/22 09:00:18;;;;;;;40.78;34.85;;;10.20;99.90;;;;;;5124298;27;20402;-78
2022/03/22 09:02:45;;;;;;;39.45;34.38;;;10.40;99.90;;;;;;5098231;27;20928;-78
2022/03/22 09:08:01;;;;;;;38.67;33.77;;;10.70;99.90;;;;;;5123602;27;20481;-78
2022/03/22 09:10:27;;;;;;;40.97;33.50;;;10.90;99.90;;;;;;5129763;27;20426;-78
2022/03/22 09:12:54;;;;;;;36.33;32.50;;;11.10;99.90;;;;;;5122117;27;20757;-79
2022/03/22 09:15:22;;;;;;;39.28;33.90;;;11.20;99.90;;;;;;5130127;27;21049;-78
2022/03/22 09:17:49;;;;;;;36.95;32.60;;;11.30;99.90;;;;;;5119922;27;20419;-78
2022/03/22 09:20:17;;;;;;;39.60;33.17;;;11.50;99.90;;;;;;5109740;28;20463;-78
2022/03/22 09:22:44;;;;;;;38.10;32.22;;;11.70;99.90;;;;;;5109475;27;20428;-79
2022/03/22 09:25:13;;;;;;;37.72;32.53;;;12.00;99.90;;;;;;5123068;27;20417;-79
2022/03/22 09:27:39;;;;;;;35.03;30.88;;;12.80;99.90;;;;;;5104203;27;20988;-79
2022/03/22 09:30:06;;;;;;;34.53;29.92;;;13.60;99.90;;;;;;5111705;27;20405;-79
2022/03/22 09:32:32;;;;;;;36.58;30.55;;;14.30;99.90;;;;;;5129319;27;20399;-79
2022/03/22 09:35:00;;;;;;;33.28;29.38;;;15.00;99.90;;;;;;5091036;27;20852;-79
2022/03/22 09:37:31;;;;;;;34.20;29.05;;;15.60;97.10;;;;;;5129943;27;20493;-79
2022/03/22 09:39:57;;;;;;;32.28;28.80;;;16.00;94.90;;;;;;5129879;27;20433;-79
2022/03/22 09:42:23;;;;;;;35.38;29.98;;;16.50;94.30;;;;;;5128220;27;21555;-79
2022/03/22 09:44:50;;;;;;;33.33;28.45;;;17.00;93.30;;;;;;5118339;27;20429;-79
2022/03/22 09:47:16;;;;;;;32.85;29.00;;;17.30;90.10;;;;;;5113092;27;21070;-79
2022/03/22 09:49:43;;;;;;;31.52;28.23;;;17.50;88.30;;;;;;5109690;28;20724;-79
2022/03/22 09:52:09;;;;;;;;;;;17.80;86.60;;;;;;5120282;27;20043;-79
2022/03/22 09:54:35;;;;;;;;;;;18.00;85.20;;;;;;5113256;27;20010;-79
2022/03/22 09:57:04;;;;;;;;;;;18.20;81.90;;;;;;5107597;28;19920;-79
2022/03/22 09:59:32;;;;;;;;;;;18.30;82.10;;;;;;5117291;27;19920;-79
2022/03/22 10:02:01;;;;;;;;;;;18.50;79.10;;;;;;5131536;27;19919;-79
2022/03/22 10:04:37;;;;;;;;;;;18.60;78.60;;;;;;5131648;27;19919;-79
2022/03/22 10:07:05;;;;;;;;;;;18.80;78.10;;;;;;5096488;27;20012;-79
2022/03/22 10:09:31;;;;;;;;;;;18.90;76.00;;;;;;5131146;27;19920;-79
2022/03/22 10:11:57;;;;;;;;;;;19.20;75.10;;;;;;5112690;27;19939;-80
2022/03/22 10:14:36;;;;;;;;;;;19.30;74.00;;;;;;5110810;27;19919;-80
2022/03/22 10:17:15;;;;;;;;;;;19.40;72.60;;;;;;5126261;27;19919;-79
2022/03/22 10:19:42;;;;;;;;;;;19.60;72.80;;;;;;5130940;27;19926;-79
2022/03/22 10:22:10;;;;;;;;;;;19.70;70.40;;;;;;5124071;27;19930;-79
2022/03/22 10:24:49;;;;;;;;;;;19.90;73.10;;;;;;5112971;27;19927;-80
2022/03/22 10:27:26;;;;;;;;;;;20.20;70.00;;;;;;5131049;27;20453;-80
2022/03/22 10:29:51;;;;;;;;;;;20.50;68.60;;;;;;5110995;27;19958;-80
2022/03/22 10:32:19;;;;;;;;;;;20.80;67.30;;;;;;5096960;28;19970;-80
2022/03/22 10:34:45;;;;;;;;;;;21.10;63.60;;;;;;5111871;28;19942;-80
2022/03/22 10:37:10;;;;;;;;;;;21.20;63.50;;;;;;5101766;28;19920;-80
2022/03/22 10:39:39;;;;;;;;;;;21.40;65.30;;;;;;5109564;28;19931;-80
2022/03/22 10:42:06;;;;;;;;;;;21.70;64.90;;;;;;5115161;27;20356;-80
2022/03/22 10:44:35;;;;;;;;;;;21.90;65.00;;;;;;5097504;28;21907;-80
2022/03/22 10:47:02;;;;;;;;;;;22.00;64.40;;;;;;5110583;27;20015;-78
2022/03/22 10:49:28;;;;;;;;;;;22.10;63.40;;;;;;5094925;28;20740;-79
2022/03/22 10:51:54;;;;;;;;;;;22.20;61.50;;;;;;5111106;27;19923;-80
2022/03/22 10:54:20;;;;;;;;;;;22.30;62.80;;;;;;5104881;27;19976;-80
2022/03/22 10:56:50;;;;;;;;;;;22.40;59.40;;;;;;5129970;27;19958;-79
2022/03/22 10:59:17;;;;;;;;;;;22.40;60.50;;;;;;5127579;27;19927;-80
2022/03/22 11:01:44;;;;;;;;;;;22.60;59.30;;;;;;5112343;27;19924;-80
2022/03/22 11:04:10;;;;;;;;;;;22.70;59.10;;;;;;5130192;28;20009;-78
2022/03/22 11:06:37;;;;;;;;;;;22.90;58.90;;;;;;5123322;28;20362;-78
2022/03/22 11:09:03;;;;;;;;;;;22.90;59.00;;;;;;5115840;28;19924;-77
2022/03/22 11:11:31;;;;;;;;;;;23.10;59.10;;;;;;5126218;28;19976;-78
2022/03/22 11:13:56;;;;;;;;;;;23.20;58.40;;;;;;5117924;28;20022;-79
2022/03/22 11:16:24;;;;;;;;;;;23.30;60.30;;;;;;5130743;28;20468;-80
2022/03/22 11:18:50;;;;;;;;;;;23.50;58.40;;;;;;5125445;28;19924;-80
2022/03/22 11:21:17;;;;;;;;;;;23.70;58.40;;;;;;5111226;28;19927;-80
2022/03/22 11:23:44;;;;;;;;;;;23.90;57.90;;;;;;5094016;28;19924;-80
2022/03/22 11:26:16;;;;;;;;;;;24.10;58.70;;;;;;5113135;28;20389;-80
2022/03/22 11:28:42;;;;;;;;;;;24.20;57.00;;;;;;5078893;27;20471;-80
2022/03/22 11:31:10;;;;;;;;;;;24.30;57.30;;;;;;5119107;27;19923;-79
2022/03/22 11:36:22;;;;;;;;;;;24.30;56.50;;;;;;5118211;27;19932;-80
2022/03/22 11:38:49;;;;;;;;;;;24.40;57.30;;;;;;5086173;27;20424;-79
2022/03/22 11:44:15;;;;;;;;;;;24.50;56.40;;;;;;5115357;27;20360;-80
2022/03/22 11:46:41;;;;;;;;;;;24.50;53.60;;;;;;5124388;27;19930;-79
2022/03/22 11:49:11;;;;;;;;;;;24.50;55.90;;;;;;5116322;27;20026;-79
2022/03/22 11:51:45;;;;;;;;;;;24.70;56.20;;;;;;5119053;27;19930;-79
2022/03/22 11:54:11;;;;;;;;;;;24.90;55.50;;;;;;5113024;28;20298;-79
2022/03/22 11:56:44;;;;;;;;;;;24.80;52.00;;;;;;5113765;28;19927;-79
2022/03/22 11:59:11;;;;;;;;;;;24.60;50.70;;;;;;5094477;28;19924;-79
2022/03/22 12:01:37;;;;;;;;;;;24.60;52.60;;;;;;5113573;28;19943;-79
2022/03/22 12:04:14;;;;;;;;;;;24.90;52.50;;;;;;5112499;28;19950;-79
2022/03/22 12:06:39;;;;;;;;;;;25.10;53.20;;;;;;5113321;27;20401;-79
2022/03/22 12:09:06;;;;;;;;;;;25.20;50.40;;;;;;5133280;27;19996;-79
2022/03/22 12:11:32;;;;;;;;;;;25.20;49.10;;;;;;5115598;27;20492;-79
2022/03/22 12:13:57;;;;;;;;;;;25.10;52.50;;;;;;5128576;27;19934;-79
2022/03/22 12:16:26;;;;;;;;;;;25.10;53.00;;;;;;5116402;27;19930;-79
2022/03/22 12:18:52;;;;;;;;;;;25.10;51.90;;;;;;5100720;27;20301;-79
2022/03/22 12:21:18;;;;;;;;;;;25.20;51.90;;;;;;5133787;27;20018;-79
2022/03/22 12:23:45;;;;;;;;;;;25.40;52.50;;;;;;5128435;27;19954;-79
2022/03/22 12:26:11;;;;;;;;;;;25.60;51.80;;;;;;5127332;27;20016;-79
2022/03/22 12:28:49;;;;;;;;;;;25.80;52.40;;;;;;5130888;27;19984;-79
2022/03/22 12:31:15;;;;;;;;;;;25.80;51.00;;;;;;5132952;27;19930;-79
2022/03/22 12:33:40;;;;;;;;;;;25.80;51.00;;;;;;5133536;27;19923;-79
2022/03/22 12:36:06;;;;;;;;;;;25.90;52.40;;;;;;5133169;27;19927;-79
2022/03/22 12:38:32;;;;;;;;;;;26.00;49.70;;;;;;5127883;27;19927;-79
2022/03/22 12:40:57;;;;;;;;;;;26.10;50.30;;;;;;5133230;27;19928;-79
2022/03/22 12:43:23;;;;;;;;;;;26.20;50.60;;;;;;5133076;27;19924;-79
2022/03/22 12:45:49;;;;;;;;;;;26.40;49.80;;;;;;5119180;27;20023;-79
2022/03/22 12:48:15;;;;;;;;;;;26.60;48.90;;;;;;5112633;28;19927;-79
2022/03/22 12:50:41;;;;;;;;;;;26.60;49.50;;;;;;5119300;27;20408;-79
2022/03/22 12:53:06;;;;;;;;;;;26.80;49.70;;;;;;5114309;27;19923;-78
2022/03/22 12:55:32;;;;;;;;;;;26.80;49.90;;;;;;5113925;27;19924;-78
2022/03/22 12:57:58;;;;;;;;;;;26.90;48.90;;;;;;5132673;27;19931;-78
2022/03/22 13:00:24;;;;;;;;;;;26.90;48.50;;;;;;5133043;27;19930;-78
2022/03/22 13:02:49;;;;;;;;;;;27.20;47.60;;;;;;5126441;27;20293;-78
2022/03/22 13:05:22;;;;;;;;;;;27.30;48.20;;;;;;5125011;27;19932;-78
2022/03/22 13:07:47;;;;;;;;;;;27.40;48.20;;;;;;5112102;28;20018;-78
2022/03/22 13:12:57;;;;;;;;;;;27.50;47.80;;;;;;5116026;27;19976;-78
2022/03/22 13:15:23;;;;;;;;;;;27.60;49.10;;;;;;5132289;27;20369;-78
2022/03/22 13:17:52;;;;;;;;;;;27.80;48.60;;;;;;5132567;27;19965;-78
2022/03/22 13:20:21;;;;;;;;;;;27.90;47.30;;;;;;5113116;27;19927;-78
2022/03/22 13:22:55;;;;;;;;;;;27.90;46.80;;;;;;5132607;27;20385;-78
2022/03/22 13:25:35;;;;;;;;;;;27.90;47.80;;;;;;5130055;27;19927;-78
2022/03/22 13:28:04;;;;;;;;;;;27.80;46.60;;;;;;5126337;27;19923;-78
2022/03/22 13:30:30;;;;;;;;;;;27.50;46.50;;;;;;5132359;27;19924;-78
2022/03/22 13:33:10;;;;;;;;;;;27.40;46.80;;;;;;5132081;27;19984;-78
2022/03/22 13:35:36;;;;;;;;;;;27.50;47.10;;;;;;5124501;27;19924;-78
2022/03/22 13:38:06;;;;;;;;;;;27.50;45.60;;;;;;5132126;27;19923;-78
2022/03/22 13:40:36;;;;;;;;;;;27.50;46.50;;;;;;5096395;28;19923;-78